createdAt,value
2023-03-13T00:03:46.686Z,0
2023-03-13T00:08:48.186Z,0
2023-03-13T00:13:49.661Z,0
2023-03-13T00:18:51.160Z,0
2023-03-13T00:23:52.634Z,0.88715
2023-03-13T00:28:54.273Z,0
2023-03-13T00:33:56.161Z,0
2023-03-13T00:38:57.784Z,0
2023-03-13T00:43:59.441Z,0
2023-03-13T00:49:01.144Z,0
2023-03-13T00:54:02.913Z,0
2023-03-13T00:59:04.368Z,0
2023-03-13T01:04:06.015Z,0
2023-03-13T01:09:07.732Z,0
2023-03-13T01:14:09.171Z,0
2023-03-13T01:19:13.031Z,0
2023-03-13T01:24:15.261Z,0
2023-03-13T01:29:16.981Z,0
2023-03-13T01:34:18.746Z,0
2023-03-13T01:39:20.527Z,0.88715
2023-03-13T01:44:22.279Z,0.88715
2023-03-13T01:49:24.073Z,0
2023-03-13T01:54:25.852Z,0.88715
2023-03-13T01:59:27.604Z,0
2023-03-13T02:04:29.254Z,0
2023-03-13T02:09:30.738Z,0
2023-03-13T02:14:32.231Z,0
2023-03-13T02:19:33.995Z,0
2023-03-13T02:24:35.751Z,0
2023-03-13T02:29:37.513Z,0.88715
2023-03-13T02:34:39.242Z,0
2023-03-13T02:39:41.041Z,0
2023-03-13T02:44:42.815Z,0
2023-03-13T02:49:44.679Z,0
2023-03-13T02:54:46.153Z,0
2023-03-13T02:59:47.660Z,0
2023-03-13T03:04:49.118Z,0
2023-03-13T03:09:50.840Z,0.88715
2023-03-13T03:14:52.444Z,0
2023-03-13T03:19:54.003Z,0
2023-03-13T03:24:55.496Z,0
2023-03-13T03:29:57.015Z,0.88715
2023-03-13T03:34:58.433Z,0
2023-03-13T03:39:59.929Z,0.88715
2023-03-13T03:45:01.399Z,0.88715
2023-03-13T03:50:03.078Z,1.16185
2023-03-13T03:55:04.791Z,1.53075
2023-03-13T04:00:06.459Z,5.3852
2023-03-13T04:05:08.209Z,10.7704
2023-03-13T04:10:09.879Z,20.803
2023-03-13T04:15:11.602Z,36.27595
2023-03-13T04:20:13.338Z,57.3737
2023-03-13T04:25:15.087Z,78.6559
2023-03-13T04:30:18.564Z,107.94175
2023-03-13T04:35:20.473Z,133.9265
2023-03-13T04:40:22.278Z,149.8235
2023-03-13T04:45:23.995Z,166.40315
2023-03-13T04:50:25.846Z,187.18715
2023-03-13T04:55:27.635Z,201.12935
2023-03-13T05:00:29.461Z,210.05525
2023-03-13T05:05:31.258Z,220.32745
2023-03-13T05:10:33.196Z,231.33745
2023-03-13T05:15:35.080Z,260.34755
2023-03-13T05:20:36.920Z,332.54955
2023-03-13T05:25:38.701Z,357.3553
2023-03-13T05:30:40.599Z,370.43225
2023-03-13T05:35:42.429Z,376.59325
2023-03-13T05:40:44.025Z,393.9297
2023-03-13T05:45:45.584Z,402.57985
2023-03-13T05:50:47.196Z,415.8774
2023-03-13T05:55:48.801Z,429.43355
2023-03-13T06:00:50.280Z,435.8703
2023-03-13T06:05:51.792Z,457.96445
2023-03-13T06:10:53.286Z,464.12545
2023-03-13T06:15:54.930Z,460.71405
2023-03-13T06:20:56.466Z,470.67435
2023-03-13T06:25:57.987Z,472.9809
2023-03-13T06:30:59.656Z,476.5596
2023-03-13T06:36:01.282Z,476.4683
2023-03-13T06:41:02.811Z,481.83635
2023-03-13T06:46:04.618Z,486.76135
2023-03-13T06:51:06.049Z,495.13575
2023-03-13T06:56:07.615Z,495.39435
2023-03-13T07:01:09.176Z,494.69455
2023-03-13T07:06:10.811Z,507.82665
2023-03-13T07:11:12.364Z,520.58985
2023-03-13T07:16:13.960Z,527.96785
2023-03-13T07:21:15.728Z,536.2681
2023-03-13T07:26:17.260Z,544.053
2023-03-13T07:31:18.801Z,548.40565
2023-03-13T07:36:20.395Z,550.44175
2023-03-13T07:41:21.882Z,570.41145
2023-03-13T07:46:23.628Z,582.49985
2023-03-13T07:51:36.882Z,599.62515
2023-03-13T07:56:44.354Z,626.0539
2023-03-13T08:01:46.103Z,641.57925
2023-03-13T08:06:47.790Z,663.6821
2023-03-13T08:11:49.210Z,684.48145
2023-03-13T08:16:50.736Z,711.32495
2023-03-13T08:21:52.230Z,711.0286
2023-03-13T08:26:53.849Z,744.8645
2023-03-13T08:31:55.357Z,746.9384
2023-03-13T08:36:56.780Z,772.89305
2023-03-13T08:41:58.277Z,792.09245
2023-03-13T08:46:59.753Z,816.74345
2023-03-13T08:52:01.303Z,838.01675
2023-03-13T08:57:03.273Z,849.335
2023-03-13T09:02:05.057Z,866.2233
2023-03-13T09:07:06.920Z,883.70425
2023-03-13T09:12:15.518Z,897.57045
2023-03-13T09:17:23.227Z,922.0438
2023-03-13T09:22:25.029Z,941.65805
2023-03-13T09:27:26.833Z,954.1021
2023-03-13T09:32:28.702Z,980.76795
2023-03-13T09:37:30.441Z,992.1454
2023-03-13T09:42:32.236Z,1005.0043
2023-03-13T09:47:34.022Z,1023.4927
2023-03-13T09:52:35.767Z,1050.04
2023-03-13T09:57:37.520Z,1060.7064
2023-03-13T10:02:39.294Z,1083.93535
2023-03-13T10:07:41.113Z,1097.09045
2023-03-13T10:12:42.954Z,1113.3864
2023-03-13T10:17:44.761Z,1124.05285
2023-03-13T10:22:46.528Z,1132.5859
2023-03-13T10:27:50.701Z,1146.2745
2023-03-13T10:32:52.662Z,1176.4959
2023-03-13T10:37:54.216Z,1203.81355
2023-03-13T10:42:56.020Z,1212.80025
2023-03-13T10:47:57.570Z,1243.2118
2023-03-13T10:52:59.336Z,1258.55545
2023-03-13T10:58:01.149Z,1282.51125
2023-03-13T11:03:03.089Z,1306.83595
2023-03-13T11:08:04.984Z,1361.63105
2023-03-13T11:13:06.782Z,1429.84745
2023-03-13T11:18:08.505Z,1475.45435
2023-03-13T11:23:10.506Z,791.36765
2023-03-13T11:28:12.333Z,901.45975
2023-03-13T11:33:14.090Z,998.91425
2023-03-13T11:38:15.867Z,774.38295
2023-03-13T11:43:25.098Z,1607.13685
2023-03-13T11:48:27.599Z,1690.06755
2023-03-13T11:53:29.081Z,1576.9765
2023-03-13T11:58:30.679Z,1718.30185
2023-03-13T12:03:32.252Z,1725.8986
2023-03-13T12:08:33.914Z,1796.3854
2023-03-13T12:13:35.365Z,1809.12775
2023-03-13T12:18:36.861Z,1800.5536
2023-03-13T12:23:38.361Z,594.19565
2023-03-13T12:28:39.925Z,1832.27715
2023-03-13T12:33:41.423Z,573.65125
2023-03-13T12:38:42.909Z,611.73555
2023-03-13T12:43:49.697Z,2051.7908
2023-03-13T12:48:56.274Z,2021.43255
2023-03-13T12:53:58.517Z,1773.67535
2023-03-13T12:59:00.122Z,1861.58805
2023-03-13T13:04:01.670Z,1789.3615
2023-03-13T13:09:03.377Z,1900.27715
2023-03-13T13:14:05.246Z,1934.8189
2023-03-13T13:19:06.973Z,2086.5629
2023-03-13T13:24:09.308Z,540.5244
2023-03-13T13:29:11.107Z,453.30965
2023-03-13T13:34:12.888Z,463.93175
2023-03-13T13:39:14.627Z,2032.2966
2023-03-13T13:44:16.449Z,2045.97835
2023-03-13T13:49:18.308Z,2095.80675
2023-03-13T13:54:20.380Z,2141.5601
2023-03-13T13:59:21.897Z,2136.67125
2023-03-13T14:04:23.659Z,732.821
2023-03-13T14:09:25.426Z,2030.99435
2023-03-13T14:14:27.282Z,2019.55845
2023-03-13T14:19:29.029Z,2042.90575
2023-03-13T14:24:30.806Z,2039.5115
2023-03-13T14:29:32.625Z,2104.72155
2023-03-13T14:34:34.398Z,2070.4917
2023-03-13T14:39:36.198Z,1995.43165
2023-03-13T14:44:37.919Z,1988.4967
2023-03-13T14:49:39.664Z,1927.35985
2023-03-13T14:54:41.184Z,1857.7953
2023-03-13T14:59:42.832Z,1813.4967
2023-03-13T15:04:44.691Z,1724.99265
2023-03-13T15:09:46.497Z,1613.1033
2023-03-13T15:14:48.355Z,1434.32485
2023-03-13T15:19:49.917Z,1266.48225
2023-03-13T15:25:05.259Z,1125.6018
2023-03-13T15:30:07.905Z,934.1343
2023-03-13T15:35:09.448Z,718.9126
2023-03-13T15:40:11.014Z,520.0671
2023-03-13T15:45:12.466Z,352.94145
2023-03-13T15:50:13.994Z,232.32595
2023-03-13T15:55:15.552Z,176.47745
2023-03-13T16:00:17.378Z,146.30365
2023-03-13T16:05:19.019Z,114.32335
2023-03-13T16:10:23.115Z,86.29065
2023-03-13T16:15:26.165Z,59.5681
2023-03-13T16:20:27.685Z,40.9785
2023-03-13T16:25:29.189Z,26.85185
2023-03-13T16:30:30.640Z,13.0941
2023-03-13T16:35:32.208Z,4.7767
2023-03-13T16:40:33.938Z,1.83695
2023-03-13T16:45:35.415Z,1.3463
2023-03-13T16:50:36.992Z,0
2023-03-13T16:55:38.715Z,0.88715
2023-03-13T17:00:40.510Z,0.88715
2023-03-13T17:05:42.413Z,0.88715
2023-03-13T17:10:44.197Z,0
2023-03-13T17:15:46.137Z,0.88715
2023-03-13T17:20:47.947Z,0
2023-03-13T17:25:49.732Z,0
2023-03-13T17:30:51.218Z,0
2023-03-13T17:35:52.804Z,0.88715
2023-03-13T17:40:54.311Z,0
2023-03-13T17:45:56.667Z,0
2023-03-13T17:50:58.230Z,0
2023-03-13T17:55:59.711Z,0
2023-03-13T18:01:01.336Z,0
2023-03-13T18:06:03.064Z,0
2023-03-13T18:11:04.905Z,0
2023-03-13T18:16:06.640Z,0
2023-03-13T18:21:08.264Z,0.88715
2023-03-13T18:26:09.984Z,0
2023-03-13T18:31:12.116Z,0
2023-03-13T18:36:13.707Z,0
2023-03-13T18:41:15.272Z,0
2023-03-13T18:46:16.968Z,0
2023-03-13T18:51:18.467Z,0.88715
2023-03-13T18:56:20.014Z,0
2023-03-13T19:01:21.613Z,0
2023-03-13T19:06:23.234Z,0
2023-03-13T19:11:24.658Z,0
2023-03-13T19:16:26.236Z,0
2023-03-13T19:21:27.715Z,0
2023-03-13T19:26:29.410Z,0
2023-03-13T19:31:31.064Z,0
2023-03-13T19:36:32.596Z,0
2023-03-13T19:41:34.101Z,0
2023-03-13T19:46:35.687Z,0.88715
2023-03-13T19:51:37.204Z,0
2023-03-13T19:56:38.749Z,0.88715
2023-03-13T20:01:40.469Z,0
2023-03-13T20:06:41.955Z,0
2023-03-13T20:11:43.489Z,0
2023-03-13T20:16:45.173Z,0
2023-03-13T20:21:46.815Z,0
2023-03-13T20:26:48.298Z,0
2023-03-13T20:31:51.748Z,0
2023-03-13T20:36:54.466Z,0
2023-03-13T20:46:56.413Z,0
2023-03-13T20:51:57.936Z,0
2023-03-13T20:56:59.455Z,0
2023-03-13T21:02:01.107Z,0
2023-03-13T21:07:02.646Z,0
2023-03-13T21:12:04.158Z,0
2023-03-13T21:17:05.732Z,0
2023-03-13T21:22:07.271Z,0
2023-03-13T21:27:09.033Z,0
2023-03-13T21:32:10.810Z,0
2023-03-13T21:37:12.278Z,0
2023-03-13T21:42:14.078Z,0
2023-03-13T21:47:15.841Z,0.88715
2023-03-13T21:52:17.568Z,0.88715
2023-03-13T21:57:19.329Z,0
2023-03-13T22:02:21.116Z,0
2023-03-13T22:07:22.690Z,0
2023-03-13T22:12:24.185Z,0
2023-03-13T22:17:25.689Z,0
2023-03-13T22:22:27.166Z,0
2023-03-13T22:27:28.918Z,0
2023-03-13T22:32:30.789Z,0
2023-03-13T22:37:32.570Z,0
2023-03-13T22:42:34.340Z,0
2023-03-13T22:47:36.127Z,0
2023-03-13T22:52:37.577Z,0
2023-03-13T22:57:39.091Z,0
2023-03-13T23:02:40.554Z,0
2023-03-13T23:07:42.113Z,0
2023-03-13T23:12:43.607Z,0
2023-03-13T23:17:45.456Z,0
2023-03-13T23:22:47.158Z,0
2023-03-13T23:27:48.964Z,0
2023-03-13T23:32:50.901Z,0
2023-03-13T23:37:52.510Z,0
2023-03-13T23:42:54.017Z,0.88715
2023-03-13T23:47:55.922Z,0
2023-03-13T23:52:57.403Z,0
2023-03-13T23:57:58.836Z,0.88715
